Latest Coastal Weather Observations for Evans Head

IDN60701

Issued at 1:21 am EDT Sunday 17 February 2019 (issued every 10 minutes, with the page automatically refreshed every 10 minutes)

About coastal observations | Map of coastal stations | Coastal observations for NSW | Marine services | Other Formats
Station Details ID: 058212 Name: EVANS HEAD RAAF BOMBING RANGE AWS Lat: -29.18 Lon: 153.40 Height: 62.5 m
Data from the previous 72 hours. | See also: Recent months at Evans Head
Date/Time
EDT
Wind Sea
Height
m
Swell Vis
km
Cloud Weather Temp
°C
Press
hPa
Rain since
9am
mm
Dir  Spd
kts
Gust
kts
Height
m
Period
s
Dir
17/01:00am ESE 9 11 - - - - - - - 22.5 1016.3 0.0
17/12:30am ESE 10 13 - - - - - - - 22.8 1016.6 0.0
17/12:00am ESE 10 14 - - - - - - - 22.9 1017.0 0.0
 
Date/Time
EDT
Wind Sea
Height
m
Swell Vis
km
Cloud Weather Temp
°C
Press
hPa
Rain since
9am
mm
Dir  Spd
kts
Gust
kts
Height
m
Period
s
Dir
16/11:30pm ESE 9 15 - - - - - - - 22.9 1017.2 0.0
16/11:00pm ESE 12 16 - - - - - - - 23.1 1017.3 0.0
16/10:30pm ESE 11 15 - - - - - - - 22.9 1017.4 0.0
16/10:00pm ESE 11 16 - - - - - - - 23.1 1017.3 0.0
16/09:30pm ESE 12 17 - - - - - - - 23.2 1017.2 0.0
16/09:00pm ESE 11 15 - - - - - - - 23.2 1017.0 0.0
16/08:30pm ESE 12 16 - - - - - - - 23.3 1016.9 0.0
16/08:00pm ESE 11 15 - - - - - - - 23.4 1016.7 0.0
16/07:30pm SE 8 11 - - - - - - - 23.1 1016.5 0.0
16/07:00pm SE 10 14 - - - - - - - 24.1 1016.3 0.0
16/06:30pm SE 11 15 - - - - - - - 25.0 1016.2 0.0
16/06:00pm SE 10 16 - - - - - - - 25.9 1016.3 0.0
16/05:30pm SE 12 17 - - - - - - - 26.6 1016.3 0.0
16/05:00pm SE 13 17 - - - - - - - 27.1 1016.3 0.0
16/04:30pm SE 13 20 - - - - - - - 28.0 1016.2 0.0
16/04:00pm SE 14 18 - - - - - - - 27.2 1016.4 0.0
16/03:30pm SSE 15 20 - - - - - - - 27.1 1016.7 0.0
16/03:00pm SSE 15 18 - - - - - - - 26.6 1017.0 0.0
16/02:30pm SE 15 19 - - - - - - - 26.8 1017.4 0.0
16/02:00pm SSE 16 21 - - - - - - - 26.7 1017.8 0.0
16/01:30pm SSE 14 19 - - - - - - - 26.3 1018.1 0.0
16/01:00pm SSE 12 18 - - - - - - - 25.9 1018.4 0.0
16/12:30pm SE 15 20 - - - - - - - 27.2 1018.7 0.0
16/12:00pm SE 16 22 - - - - - - - 26.3 1019.0 0.0
16/11:30am SSE 16 21 - - - - - - - 26.3 1019.0 0.0
16/11:00am SSE 13 19 - - - - - - - 25.6 1019.2 0.0
16/10:30am SE 15 20 - - - - - - - 26.7 1019.2 0.0
16/10:00am SE 15 20 - - - - - - - 25.7 1019.2 0.0
16/09:30am SE 14 19 - - - - - - - 24.4 1019.2 0.0
16/09:00am SSE 9 15 - - - - - - - 23.0 1019.0 0.8
16/08:30am SW 7 9 - - - - - - - 19.7 1018.9 0.8
16/08:00am SSE 5 7 - - - - - - - 19.6 1019.1 0.8
16/07:30am SE 9 14 - - - - - - - 20.1 1018.7 0.0
16/07:11am SSE 8 22 - - - - - - - 20.8 1018.6 0.0
16/07:00am S 5 8 - - - - - - - 20.1 1018.4 0.0
16/06:30am SE 5 8 - - - - - - - 20.0 1018.2 0.0
16/06:00am SSW 5 9 - - - - - - - 20.0 1017.8 0.0
16/05:30am SSW 7 12 - - - - - - - 20.0 1017.6 0.0
16/05:00am SW 7 9 - - - - - - - 19.7 1017.6 0.0
16/04:30am SSE 11 17 - - - - - - - 21.8 1017.8 0.0
16/04:00am SSE 11 16 - - - - - - - 22.0 1017.9 0.0
16/03:30am SSE 13 18 - - - - - - - 22.0 1018.2 0.0
16/03:00am S 8 15 - - - - - - - 21.3 1018.6 0.0
16/02:30am SSE 13 18 - - - - - - - 22.6 1018.5 0.0
16/02:00am SSW 7 10 - - - - - - - 21.8 1019.0 0.0
16/01:30am SE 11 17 - - - - - - - 23.3 1019.3 0.0
16/01:00am SE 10 15 - - - - - - - 23.1 1019.8 0.0
16/12:30am SE 9 14 - - - - - - - 23.0 1020.0 0.0
16/12:00am SE 11 15 - - - - - - - 23.2 1020.2 0.0
 
Date/Time
EDT
Wind Sea
Height
m
Swell Vis
km
Cloud Weather Temp
°C
Press
hPa
Rain since
9am
mm
Dir  Spd
kts
Gust
kts
Height
m
Period
s
Dir
15/11:30pm ESE 13 17 - - - - - - - 22.9 1020.3 0.0
15/11:00pm SE 13 18 - - - - - - - 23.1 1020.5 0.0
15/10:30pm SE 13 19 - - - - - - - 23.6 1020.6 0.0
15/10:00pm SE 12 17 - - - - - - - 23.5 1020.8 0.0
15/09:30pm SSE 14 20 - - - - - - - 23.3 1020.6 0.0
15/09:00pm SSE 15 20 - - - - - - - 23.6 1020.3 0.0
15/08:30pm SSE 15 23 - - - - - - - 23.6 1020.1 0.0
15/08:00pm SSE 15 20 - - - - - - - 23.4 1019.9 0.0
15/07:30pm SSE 18 23 - - - - - - - 23.5 1019.5 0.0
15/07:00pm SSE 18 24 - - - - - - - 23.8 1019.2 0.0
15/06:30pm SSE 18 25 - - - - - - - 24.2 1018.9 0.0
15/06:00pm SSE 20 27 - - - - - - - 24.7 1018.6 0.0
15/05:30pm SSE 20 25 - - - - - - - 25.3 1018.5 0.0
15/05:00pm SSE 20 27 - - - - - - - 25.9 1018.6 0.0
15/04:30pm SE 21 29 - - - - - - - 26.2 1018.5 0.0
15/04:28pm SE 20 29 - - - - - - - 26.4 1018.5 0.0
15/04:00pm SSE 19 28 - - - - - - - 26.9 1018.7 0.0
15/03:30pm SSE 20 28 - - - - - - - 27.0 1018.9 0.0
15/03:00pm SE 20 27 - - - - - - - 27.4 1019.0 0.0
15/02:30pm SSE 21 28 - - - - - - - 27.2 1019.2 0.0
15/02:00pm SSE 19 26 - - - - - - - 27.1 1019.6 0.0
15/01:30pm SSE 21 28 - - - - - - - 28.1 1019.7 0.0
15/01:00pm SSE 19 25 - - - - - - - 27.3 1019.9 0.0
15/12:30pm SSE 19 26 - - - - - - - 27.0 1020.1 0.0
15/12:00pm SSE 20 27 - - - - - - - 26.5 1020.2 0.0
15/11:30am SSE 21 28 - - - - - - - 26.2 1020.5 0.0
15/11:00am SSE 20 27 - - - - - - - 25.9 1020.6 0.0
15/10:30am SSE 19 27 - - - - - - - 26.0 1020.6 0.0
15/10:00am SSE 18 27 - - - - - - - 25.7 1020.6 0.0
15/09:57am SSE 17 27 - - - - - - - 26.4 1020.6 0.0
15/09:30am SSE 21 28 - - - - - - - 25.2 1020.4 0.0
15/09:00am SSE 19 25 - - - - - - - 24.1 1020.4 0.0
15/08:30am SSE 16 23 - - - - - - - 23.8 1020.2 0.0
15/08:00am SSE 16 23 - - - - - - - 23.0 1019.9 0.0
15/07:30am SSE 15 21 - - - - - - - 22.8 1019.8 0.0
15/07:00am SSE 14 21 - - - - - - - 22.7 1019.5 0.0
15/06:30am SSE 17 24 - - - - - - - 22.7 1019.1 0.0
15/06:00am SSE 16 22 - - - - - - - 22.7 1018.8 0.0
15/05:30am SSE 17 22 - - - - - - - 22.8 1018.6 0.0
15/05:00am SSE 17 24 - - - - - - - 22.9 1018.4 0.0
15/04:30am SSE 17 22 - - - - - - - 23.1 1018.4 0.0
15/04:00am SE 16 24 - - - - - - - 23.2 1018.4 0.0
15/03:30am SE 16 21 - - - - - - - 23.3 1018.3 0.0
15/03:00am SE 16 22 - - - - - - - 23.3 1018.3 0.0
15/02:30am SE 14 19 - - - - - - - 23.2 1018.4 0.0
15/02:00am SE 14 19 - - - - - - - 22.8 1018.6 0.0
15/01:30am SE 15 21 - - - - - - - 22.8 1018.8 0.0
15/01:00am SE 15 21 - - - - - - - 22.7 1018.8 0.0
15/12:30am SE 15 21 - - - - - - - 23.0 1018.9 0.0
15/12:00am SE 15 19 - - - - - - - 23.0 1019.0 0.0
 
Date/Time
EDT
Wind Sea
Height
m
Swell Vis
km
Cloud Weather Temp
°C
Press
hPa
Rain since
9am
mm
Dir  Spd
kts
Gust
kts
Height
m
Period
s
Dir
14/11:30pm SE 15 21 - - - - - - - 23.1 1019.1 0.0
14/11:00pm SE 15 20 - - - - - - - 23.1 1019.2 0.0
14/10:30pm SE 14 19 - - - - - - - 23.3 1019.3 0.0
14/10:00pm SE 14 19 - - - - - - - 23.1 1019.2 0.0
14/09:30pm SE 15 20 - - - - - - - 23.0 1018.9 0.0
14/09:00pm SE 15 20 - - - - - - - 22.8 1018.5 0.0
14/08:30pm SE 15 22 - - - - - - - 22.9 1018.1 0.0
14/08:00pm SSE 16 22 - - - - - - - 23.3 1017.8 0.0
14/07:30pm SSE 15 21 - - - - - - - 23.1 1017.4 0.0
14/07:00pm SSE 15 25 - - - - - - - 23.4 1017.1 0.0
14/06:59pm SSE 15 25 - - - - - - - 23.4 1017.1 0.0
14/06:30pm SSE 19 25 - - - - - - - 24.0 1016.7 0.0
14/06:00pm SSE 18 25 - - - - - - - 24.5 1016.6 0.0
14/05:30pm SSE 19 27 - - - - - - - 25.0 1016.4 0.0
14/05:00pm SSE 19 26 - - - - - - - 25.7 1016.1 0.0
14/04:51pm SSE 20 30 - - - - - - - 26.2 1016.0 0.0
14/04:30pm SSE 22 29 - - - - - - - 26.0 1015.9 0.0
14/04:00pm SSE 22 30 - - - - - - - 25.5 1015.6 0.0
14/03:30pm SSE 23 31 - - - - - - - 26.4 1015.5 0.0
14/03:25pm SSE 22 31 - - - - - - - 26.1 1015.5 0.0
14/03:00pm SSE 21 29 - - - - - - - 26.1 1015.4 0.0
14/02:30pm SSE 21 28 - - - - - - - 25.4 1015.3 0.0
14/02:00pm SSE 21 27 - - - - - - - 24.1 1015.5 0.0
14/01:30pm SSE 20 28 - - - - - - - 24.2 1015.6 0.0
14/01:14pm SSE 19 29 - - - - - - - 24.4 1015.6 0.0
14/01:00pm SSE 20 28 - - - - - - - 24.4 1015.4 0.0
14/12:30pm SSE 20 27 - - - - - - - 24.0 1015.3 0.0
14/12:06pm SSE 17 29 - - - - - - - 23.6 1015.4 0.0
14/12:00pm SSE 18 25 - - - - - - - 23.7 1015.4 0.0
14/11:30am SSE 18 24 - - - - - - - 22.8 1015.3 0.0
14/11:00am SSE 20 27 - - - - - - - 24.1 1015.1 0.0
14/10:30am SSE 19 29 - - - - - - - 24.2 1014.9 0.0
14/10:00am SSE 20 31 - - - - - - - 24.2 1014.6 0.0
14/09:42am SSE 19 29 - - - - - - - 24.3 1014.4 0.0
14/09:30am SSE 21 28 - - - - - - - 24.6 1014.2 0.0
14/09:00am SSE 20 28 - - - - - - - 24.0 1013.8 0.0
14/08:30am SSE 21 28 - - - - - - - 23.7 1013.5 0.0
14/08:07am SSE 21 32 - - - - - - - 23.8 1013.1 0.0
14/08:00am SSE 20 29 - - - - - - - 23.8 1013.1 0.0
14/07:52am SSE 19 29 - - - - - - - 23.8 1012.9 0.0
14/07:30am SSE 22 28 - - - - - - - 23.8 1012.6 0.0
14/07:18am SSE 20 30 - - - - - - - 23.7 1012.4 0.0
14/07:00am SSE 19 27 - - - - - - - 23.7 1012.0 0.0
14/06:30am SSE 19 29 - - - - - - - 23.5 1011.4 0.0
14/06:21am SSE 20 30 - - - - - - - 23.5 1011.2 0.0
14/06:00am SSE 21 29 - - - - - - - 23.7 1010.9 0.0
14/05:51am SSE 18 29 - - - - - - - 23.5 1010.7 0.0
14/05:30am SSE 18 26 - - - - - - - 23.6 1010.5 0.0
14/05:00am SSE 18 25 - - - - - - - 23.7 1009.9 0.0
14/04:30am SSE 17 24 - - - - - - - 23.9 1010.0 0.0
14/04:00am SSE 17 23 - - - - - - - 23.9 1009.5 0.0
14/03:30am SSE 17 22 - - - - - - - 23.9 1009.2 0.0
14/03:00am SSE 17 22 - - - - - - - 23.9 1009.1 0.0
14/02:30am SSE 15 21 - - - - - - - 24.0 1009.1 0.0
14/02:00am SSE 15 20 - - - - - - - 24.1 1008.9 0.0
14/01:30am SSE 13 18 - - - - - - - 24.2 1008.9 0.0

Other Formats:

Comma delimited format used in spreadsheet applications
http://www.bom.gov.au/fwo/IDN60701/IDN60701.94598.axf

JavaScript Object Notation format (JSON) in row-major order
http://www.bom.gov.au/fwo/IDN60701/IDN60701.94598.json